Notice: Undefined index: language in /home/u908952976/domains/airgaviota-va.com/public_html/vam/index.php on line 25
AirGaviota-VA

... VIRTUAL FLIGHT...OUR PASSION



 FLIGHT DETAILS
Pilot: GVT462 Peter Voksan Aircraft: REDEYES - ANTONOV AN-2 (32V_64B) AN-2-GREEN Distance: 61NM
Departure MULM Arrival MUNG Duration 00:39
Validation Validated Type Charter Tail Number GV-AET
ZFW 4085 Block Fuel/Initial FOB 68/0 Flight Fuel 55
Passengers 10 Cargo 0 Alternate MUSN
Departure Time 1115 Cruise Speed 120 Flight Level 1500
Flight Type VFR Aircraft Type AN2 Weight Unit Kg
Date 17-04-2020 Pilot Comments Network IVAO
Crashed No Validator Comments Flight Rating -30

 ROUTE
ROUTE DCT
REMARKS
 FLIGHT FAILURES
Crashed OK Beacon off & Engine Running Fail KIAS Above 250 below 10000 FT OK
Lights OFF below 10000 FT OK Lights ON above 10000 FT OK Stall OK
Overspeed OK Flight paused OK Refueling OK
Slew detected OK Taxi & Taxi lights off Fail Take off & lights off OK
Landing & lights off OK Landed in not planned airport OK Taxi Speed OK
Wrong altimeter in Take off OK Wrong altimeter in Landing OK
 LANDING ANALYSIS
Landing wind 104º/0 kt Landing heading 346
Landing VS: -59.21 ft/min Landing IAS: 52.51 kt
Landing Force G 1 G Landing Bank -0.9
Landing Pitch 3.3 Landing Flaps 0
Navigation Lights ON Landing Lights ON
Beacon Lights OFF Strobe Lights OFF
 FLIGHT MAP
 ALTITUDE CHART
 FLIGHT FINANCIAL REPORT
 MAIN EVENTS
DATE EVENTIASALTITUDE
2020-04-17 13:12:57 SIM ACARS version 1.4.10141
2020-04-17 13:12:57 BOARDING0141
2020-04-17 13:14:36 STARTING ENGINE 1 0141
2020-04-17 13:14:36 BEACON LIGHT OFF & ENGINE ON0141
2020-04-17 13:22:09 FLAPS EXTENSION 3 % 0141
2020-04-17 13:22:10 FLAPS EXTENSION 6 % 0141
2020-04-17 13:22:10 FLAPS EXTENSION 8 % 0141
2020-04-17 13:22:10 FLAPS EXTENSION 10 % 0141
2020-04-17 13:22:10 FLAPS EXTENSION 13 % 0141
2020-04-17 13:22:10 FLAPS EXTENSION 15 % 0141
2020-04-17 13:22:11 FLAPS EXTENSION 17 % 0141
2020-04-17 13:22:11 FLAPS EXTENSION 19 % 0141
2020-04-17 13:22:11 FLAPS EXTENSION 22 % 0141
2020-04-17 13:22:11 FLAPS EXTENSION 29 % 0141
2020-04-17 13:22:12 FLAPS EXTENSION 31 % 0141
2020-04-17 13:22:12 FLAPS EXTENSION 33 % 0141
2020-04-17 13:22:12 FLAPS EXTENSION 36 % 0141
2020-04-17 13:22:12 FLAPS EXTENSION 36 % 0141
2020-04-17 13:25:23 TAXI TO THE RWY 10141
2020-04-17 13:25:23 TAXING WITH TAXI LIGHTS OFF10141
2020-04-17 13:25:36 ROLLING FOR TAKE OFF44141
2020-04-17 13:25:39 TAKE OFF50145
2020-04-17 13:25:49 FLAPS EXTENSION 32 % 52220
2020-04-17 13:25:49 FLAPS EXTENSION 30 % 52221
2020-04-17 13:25:49 FLAPS EXTENSION 29 % 52222
2020-04-17 13:25:50 FLAPS EXTENSION 27 % 52232
2020-04-17 13:25:50 FLAPS EXTENSION 24 % 52233
2020-04-17 13:25:51 FLAPS EXTENSION 20 % 51235
2020-04-17 13:26:35 FLAPS EXTENSION 19 % 58455
2020-04-17 13:26:35 FLAPS EXTENSION 17 % 58457
2020-04-17 13:26:35 FLAPS EXTENSION 15 % 58459
2020-04-17 13:26:35 FLAPS EXTENSION 13 % 58459
2020-04-17 13:26:35 FLAPS EXTENSION 11 % 58461
2020-04-17 13:26:36 FLAPS EXTENSION 9 % 58462
2020-04-17 13:26:36 FLAPS EXTENSION 7 % 58463
2020-04-17 13:26:36 FLAPS EXTENSION 3 % 58464
2020-04-17 13:26:36 FLAPS EXTENSION 1 % 58465
2020-04-17 13:26:37 FLAPS EXTENSION 0 % 59469
2020-04-17 13:27:39 CRUISE70820
2020-04-17 13:28:19 CLIMBING75960
2020-04-17 13:29:09 CRUISE811116
2020-04-17 13:29:39 CLIMBING811219
2020-04-17 13:30:29 CRUISE921313
2020-04-17 13:31:49 DESCEND123997
2020-04-17 13:32:39 CRUISE112682
2020-04-17 13:34:39 CLIMBING94886
2020-04-17 13:35:19 CRUISE921004
2020-04-17 13:35:59 CLIMBING881164
2020-04-17 13:38:39 CRUISE901376
2020-04-17 13:38:20 CLIMBING921544
2020-04-17 13:39:10 CRUISE931659
2020-04-17 13:42:20 CLIMBING961961
2020-04-17 13:43:10 CRUISE942079
2020-04-17 13:45:40 DESCEND1102069
2020-04-17 13:46:40 CRUISE1022058
2020-04-17 13:47:30 DESCEND1091895
2020-04-17 13:48:01 CRUISE1031872
2020-04-17 13:49:10 DESCEND1071729
2020-04-17 13:49:50 CRUISE1081619
2020-04-17 13:50:40 DESCEND1091409
2020-04-17 13:51:20 CRUISE1011302
2020-04-17 13:52:10 DESCEND1021122
2020-04-17 13:52:40 CRUISE1001028
2020-04-17 13:56:00 CLIMBING83919
2020-04-17 13:56:40 CRUISE781016
2020-04-17 13:58:30 CLIMBING781258
2020-04-17 13:59:00 CRUISE771311
2020-04-17 14:00:35 FLAPS EXTENSION 1 % 631364
2020-04-17 14:00:35 FLAPS EXTENSION 3 % 631363
2020-04-17 14:00:35 FLAPS EXTENSION 5 % 631362
2020-04-17 14:00:35 FLAPS EXTENSION 7 % 631362
2020-04-17 14:00:35 FLAPS EXTENSION 11 % 621360
2020-04-17 14:00:36 FLAPS EXTENSION 13 % 621359
2020-04-17 14:00:36 FLAPS EXTENSION 15 % 621358
2020-04-17 14:00:36 FLAPS EXTENSION 17 % 621357
2020-04-17 14:00:36 FLAPS EXTENSION 21 % 621356
2020-04-17 14:00:37 FLAPS EXTENSION 25 % 621355
2020-04-17 14:00:37 FLAPS EXTENSION 30 % 611353
2020-04-17 14:00:37 FLAPS EXTENSION 32 % 611352
2020-04-17 14:00:37 FLAPS EXTENSION 34 % 611351
2020-04-17 14:00:38 FLAPS EXTENSION 36 % 611348
2020-04-17 14:00:50 FLAPS EXTENSION 44 % 571267
2020-04-17 14:00:50 FLAPS EXTENSION 47 % 571266
2020-04-17 14:00:50 FLAPS EXTENSION 49 % 571265
2020-04-17 14:00:50 FLAPS EXTENSION 51 % 571260
2020-04-17 14:00:50 FLAPS EXTENSION 53 % 571259
2020-04-17 14:00:50 FLAPS EXTENSION 55 % 571258
2020-04-17 14:00:51 FLAPS EXTENSION 57 % 571257
2020-04-17 14:00:51 FLAPS EXTENSION 59 % 571256
2020-04-17 14:00:51 FLAPS EXTENSION 61 % 571255
2020-04-17 14:00:51 FLAPS EXTENSION 63 % 571254
2020-04-17 14:00:51 FLAPS EXTENSION 65 % 571254
2020-04-17 14:00:51 FLAPS EXTENSION 67 % 571253
2020-04-17 14:00:52 FLAPS EXTENSION 69 % 571253
2020-04-17 14:00:52 FLAPS EXTENSION 71 % 571252
2020-04-17 14:00:53 FLAPS EXTENSION 72 % 571249
2020-04-17 14:00:53 FLAPS EXTENSION 74 % 571248
2020-04-17 14:00:53 FLAPS EXTENSION 76 % 571248
2020-04-17 14:00:53 FLAPS EXTENSION 78 % 571247
2020-04-17 14:00:53 FLAPS EXTENSION 80 % 571246
2020-04-17 14:00:56 FLAPS EXTENSION 84 % 561238
2020-04-17 14:00:56 FLAPS EXTENSION 86 % 561238
2020-04-17 14:00:56 FLAPS EXTENSION 87 % 551237
2020-04-17 14:00:57 FLAPS EXTENSION 89 % 551236
2020-04-17 14:01:00 DESCEND551220
2020-04-17 14:01:08 FLAPS EXTENSION 90 % 551201
2020-04-17 14:01:09 FLAPS EXTENSION 92 % 551200
2020-04-17 14:01:09 FLAPS EXTENSION 94 % 551200
2020-04-17 14:01:09 FLAPS EXTENSION 96 % 551200
2020-04-17 14:01:09 FLAPS EXTENSION 97 % 551199
2020-04-17 14:01:09 FLAPS EXTENSION 99 % 551199
2020-04-17 14:01:09 FLAPS EXTENSION 100 % 551198
2020-04-17 14:01:14 FLAPS EXTENSION 98 % 551185
2020-04-17 14:01:14 FLAPS EXTENSION 96 % 551184
2020-04-17 14:01:14 FLAPS EXTENSION 94 % 551182
2020-04-17 14:01:14 FLAPS EXTENSION 97 % 551181
2020-04-17 14:01:14 FLAPS EXTENSION 99 % 551180
2020-04-17 14:01:15 FLAPS EXTENSION 100 % 551180
2020-04-17 14:01:15 FLAPS EXTENSION 100 % 551178
2020-04-17 14:02:59 FLAPS EXTENSION 98 % 53586
2020-04-17 14:03:03 FLAPS EXTENSION 96 % 55553
2020-04-17 14:03:03 FLAPS EXTENSION 96 % 55551
2020-04-17 14:03:50 CRUISE56363
2020-04-17 14:04:20 DESCEND55172
2020-04-17 14:04:50 LANDING5391
2020-04-17 14:05:25 FLAPS EXTENSION 94 % 2289
2020-04-17 14:05:25 FLAPS EXTENSION 91 % 2289
2020-04-17 14:05:25 FLAPS EXTENSION 89 % 2289
2020-04-17 14:05:25 FLAPS EXTENSION 87 % 2189
2020-04-17 14:05:25 FLAPS EXTENSION 84 % 2189
2020-04-17 14:05:25 FLAPS EXTENSION 82 % 2189
2020-04-17 14:05:26 FLAPS EXTENSION 80 % 2089
2020-04-17 14:05:26 FLAPS EXTENSION 77 % 2089
2020-04-17 14:05:26 FLAPS EXTENSION 75 % 2089
2020-04-17 14:05:26 FLAPS EXTENSION 73 % 2089
2020-04-17 14:05:26 TAXI TO THE GATE2089
2020-04-17 14:05:27 FLAPS EXTENSION 66 % 2089
2020-04-17 14:05:27 FLAPS EXTENSION 64 % 2089
2020-04-17 14:05:27 FLAPS EXTENSION 61 % 2089
2020-04-17 14:05:28 FLAPS EXTENSION 59 % 1989
2020-04-17 14:05:28 FLAPS EXTENSION 54 % 1989
2020-04-17 14:05:28 FLAPS EXTENSION 52 % 1989
2020-04-17 14:05:28 FLAPS EXTENSION 50 % 1989
2020-04-17 14:05:29 FLAPS EXTENSION 47 % 1989
2020-04-17 14:05:29 FLAPS EXTENSION 45 % 1989
2020-04-17 14:05:29 FLAPS EXTENSION 42 % 1989
2020-04-17 14:05:29 FLAPS EXTENSION 38 % 1989
2020-04-17 14:05:30 FLAPS EXTENSION 35 % 1989
2020-04-17 14:05:30 FLAPS EXTENSION 33 % 1989
2020-04-17 14:05:30 FLAPS EXTENSION 31 % 1989
2020-04-17 14:05:30 FLAPS EXTENSION 28 % 1989
2020-04-17 14:05:30 FLAPS EXTENSION 26 % 1989
2020-04-17 14:05:31 FLAPS EXTENSION 24 % 1989
2020-04-17 14:05:31 FLAPS EXTENSION 21 % 1889
2020-04-17 14:05:31 FLAPS EXTENSION 19 % 1889
2020-04-17 14:05:31 FLAPS EXTENSION 14 % 1889
2020-04-17 14:05:32 FLAPS EXTENSION 12 % 1889
2020-04-17 14:05:32 FLAPS EXTENSION 10 % 1889
2020-04-17 14:05:32 FLAPS EXTENSION 7 % 1889
2020-04-17 14:05:32 FLAPS EXTENSION 5 % 1889
2020-04-17 14:05:33 FLAPS EXTENSION 0 % 1889
2020-04-17 14:05:33 FLAPS EXTENSION 0 % 1889
2020-04-17 14:07:54 STOPPING ENGINE 1 089
 ACARS DATA
DATE IASGSALTITUDEFUEL CONSUMED OATFLIGHT STATUS
2020-04-17 13:13:5600140026BOARDING
2020-04-17 13:14:5600140126BOARDING
2020-04-17 13:15:5600140126BOARDING
2020-04-17 13:16:5600140226BOARDING
2020-04-17 13:17:5600140326BOARDING
2020-04-17 13:18:5600140426BOARDING
2020-04-17 13:19:5600140526BOARDING
2020-04-17 13:20:5600140626BOARDING
2020-04-17 13:21:5600140726BOARDING
2020-04-17 13:22:5600140826BOARDING
2020-04-17 13:23:5600140826BOARDING
2020-04-17 13:24:5666141926BOARDING
2020-04-17 13:25:5649522731126CLIMBING
2020-04-17 13:26:5663646161325CLIMBING
2020-04-17 13:27:5673748631525CRUISE
2020-04-17 13:28:56777910891624CLIMBING
2020-04-17 13:29:56818312891824CLIMBING
2020-04-17 13:30:569810113211923CRUISE
2020-04-17 13:31:561241279062024DESCEND
2020-04-17 13:32:561011047512225CRUISE
2020-04-17 13:33:56981007882325CRUISE
2020-04-17 13:34:5691939332524CLIMBING
2020-04-17 13:35:56879011532624CRUISE
2020-04-17 13:36:56929412742724CLIMBING
2020-04-17 13:37:569710011712924CLIMBING
2020-04-17 13:38:56919514203023CRUISE
2020-04-17 13:38:37959815733223CLIMBING
2020-04-17 13:39:37939616833323CRUISE
2020-04-17 13:40:37949717743422CRUISE
2020-04-17 13:41:37949818793622CRUISE
2020-04-17 13:42:37969919973722CLIMBING
2020-04-17 13:43:37949821323922CRUISE
2020-04-17 13:44:37969921984021CRUISE
2020-04-17 13:45:3710811220924222CRUISE
2020-04-17 13:46:3710210620594322DESCEND
2020-04-17 13:47:3711011418604422DESCEND
2020-04-17 13:48:3710510817974622CRUISE
2020-04-17 13:49:3710911316504723DESCEND
2020-04-17 13:50:3710811214244823CRUISE
2020-04-17 13:51:3710310612355024CRUISE
2020-04-17 13:52:3710010310325124DESCEND
2020-04-17 13:53:37991018905224CRUISE
2020-04-17 13:54:3795968505425CRUISE
2020-04-17 13:55:3791938195525CRUISE
2020-04-17 13:56:37777810175624CLIMBING
2020-04-17 13:57:37788011385724CRUISE
2020-04-17 13:58:37777912755924CLIMBING
2020-04-17 13:59:37788013516023CRUISE
2020-04-17 14:00:38616213506123CRUISE
2020-04-17 14:01:37555710746224DESCEND
2020-04-17 14:02:3757577536325DESCEND
2020-04-17 14:03:3753544186426DESCEND
2020-04-17 14:04:3752521076526DESCEND
2020-04-17 14:05:371616896626TAXI TO THE GATE
2020-04-17 14:06:3700886726TAXI TO THE GATE
2020-04-17 14:07:3700886826TAXI TO THE GATE
2020-04-17 14:08:3700886826TAXI TO THE GATE